sensor_id;sensor_type;location;lat;lon;timestamp;temperature;humidity
68139;DHT22;54940;50.842;4.410;2023-03-01T00:01:59;1.70;99.90
68139;DHT22;54940;50.842;4.410;2023-03-01T00:04:24;1.70;99.90
68139;DHT22;54940;50.842;4.410;2023-03-01T00:06:50;1.70;99.90
68139;DHT22;54940;50.842;4.410;2023-03-01T00:09:17;1.80;99.90
68139;DHT22;54940;50.842;4.410;2023-03-01T00:11:44;1.70;99.90
68139;DHT22;54940;50.842;4.410;2023-03-01T00:14:10;1.80;99.90
68139;DHT22;54940;50.842;4.410;2023-03-01T00:16:39;1.80;99.90
68139;DHT22;54940;50.842;4.410;2023-03-01T00:19:06;1.80;99.90
68139;DHT22;54940;50.842;4.410;2023-03-01T00:21:32;1.80;99.90
68139;DHT22;54940;50.842;4.410;2023-03-01T00:23:59;1.80;99.90
68139;DHT22;54940;50.842;4.410;2023-03-01T00:26:25;1.80;99.90
68139;DHT22;54940;50.842;4.410;2023-03-01T00:28:51;1.80;99.90
68139;DHT22;54940;50.842;4.410;2023-03-01T00:31:22;1.80;99.90
68139;DHT22;54940;50.842;4.410;2023-03-01T00:33:48;1.80;99.90
68139;DHT22;54940;50.842;4.410;2023-03-01T00:36:17;1.80;99.90
68139;DHT22;54940;50.842;4.410;2023-03-01T00:38:44;1.70;99.90
68139;DHT22;54940;50.842;4.410;2023-03-01T00:41:14;1.70;99.90
68139;DHT22;54940;50.842;4.410;2023-03-01T00:43:40;1.70;99.90
68139;DHT22;54940;50.842;4.410;2023-03-01T00:46:14;1.70;99.90
68139;DHT22;54940;50.842;4.410;2023-03-01T00:48:40;1.70;99.90
68139;DHT22;54940;50.842;4.410;2023-03-01T00:51:08;1.80;99.90
68139;DHT22;54940;50.842;4.410;2023-03-01T00:53:35;1.80;99.90
68139;DHT22;54940;50.842;4.410;2023-03-01T00:56:01;1.80;99.90
68139;DHT22;54940;50.842;4.410;2023-03-01T00:58:27;1.80;99.90
68139;DHT22;54940;50.842;4.410;2023-03-01T01:00:52;1.80;99.90
68139;DHT22;54940;50.842;4.410;2023-03-01T01:03:19;1.80;99.90
68139;DHT22;54940;50.842;4.410;2023-03-01T01:05:45;1.70;99.90
68139;DHT22;54940;50.842;4.410;2023-03-01T01:08:10;1.70;99.90
68139;DHT22;54940;50.842;4.410;2023-03-01T01:10:36;1.70;99.90
68139;DHT22;54940;50.842;4.410;2023-03-01T01:13:02;1.70;99.90
68139;DHT22;54940;50.842;4.410;2023-03-01T01:15:28;1.70;99.90
68139;DHT22;54940;50.842;4.410;2023-03-01T01:17:54;1.70;99.90
68139;DHT22;54940;50.842;4.410;2023-03-01T01:20:20;1.60;99.90
68139;DHT22;54940;50.842;4.410;2023-03-01T01:22:46;1.60;99.90
68139;DHT22;54940;50.842;4.410;2023-03-01T01:25:11;1.60;99.90
68139;DHT22;54940;50.842;4.410;2023-03-01T01:27:37;1.60;99.90
68139;DHT22;54940;50.842;4.410;2023-03-01T01:30:04;1.60;99.90
68139;DHT22;54940;50.842;4.410;2023-03-01T01:32:30;1.50;99.90
68139;DHT22;54940;50.842;4.410;2023-03-01T01:34:55;1.40;99.90
68139;DHT22;54940;50.842;4.410;2023-03-01T01:37:21;1.40;99.90
68139;DHT22;54940;50.842;4.410;2023-03-01T01:39:47;1.30;99.90
68139;DHT22;54940;50.842;4.410;2023-03-01T01:42:16;1.30;99.90
68139;DHT22;54940;50.842;4.410;2023-03-01T01:44:44;1.30;99.90
68139;DHT22;54940;50.842;4.410;2023-03-01T01:47:21;1.30;99.90
68139;DHT22;54940;50.842;4.410;2023-03-01T01:49:53;1.30;99.90
68139;DHT22;54940;50.842;4.410;2023-03-01T01:52:26;1.30;99.90
68139;DHT22;54940;50.842;4.410;2023-03-01T01:55:14;1.10;99.90
68139;DHT22;54940;50.842;4.410;2023-03-01T01:57:44;1.20;99.90
68139;DHT22;54940;50.842;4.410;2023-03-01T02:00:15;1.20;99.90
68139;DHT22;54940;50.842;4.410;2023-03-01T02:02:42;1.20;99.90
68139;DHT22;54940;50.842;4.410;2023-03-01T02:07:54;1.10;99.90
68139;DHT22;54940;50.842;4.410;2023-03-01T02:10:22;1.20;99.90
68139;DHT22;54940;50.842;4.410;2023-03-01T02:12:49;1.20;99.90
68139;DHT22;54940;50.842;4.410;2023-03-01T02:15:15;1.20;99.90
68139;DHT22;54940;50.842;4.410;2023-03-01T02:17:40;1.30;99.90
68139;DHT22;54940;50.842;4.410;2023-03-01T02:20:33;1.20;99.90
68139;DHT22;54940;50.842;4.410;2023-03-01T02:23:00;1.20;99.90
68139;DHT22;54940;50.842;4.410;2023-03-01T02:25:52;1.20;99.90
68139;DHT22;54940;50.842;4.410;2023-03-01T02:28:34;1.20;99.90
68139;DHT22;54940;50.842;4.410;2023-03-01T02:31:01;1.20;99.90
68139;DHT22;54940;50.842;4.410;2023-03-01T02:33:47;1.20;99.90
68139;DHT22;54940;50.842;4.410;2023-03-01T02:36:19;1.20;99.90
68139;DHT22;54940;50.842;4.410;2023-03-01T02:38:47;1.20;99.90
68139;DHT22;54940;50.842;4.410;2023-03-01T02:41:15;1.20;99.90
68139;DHT22;54940;50.842;4.410;2023-03-01T02:43:42;1.20;99.90
68139;DHT22;54940;50.842;4.410;2023-03-01T02:46:17;1.20;99.90
68139;DHT22;54940;50.842;4.410;2023-03-01T02:48:49;1.20;99.90
68139;DHT22;54940;50.842;4.410;2023-03-01T02:56:35;1.10;99.90
68139;DHT22;54940;50.842;4.410;2023-03-01T02:59:01;1.10;99.90
68139;DHT22;54940;50.842;4.410;2023-03-01T03:01:28;1.10;99.90
68139;DHT22;54940;50.842;4.410;2023-03-01T03:04:20;1.10;99.90
68139;DHT22;54940;50.842;4.410;2023-03-01T03:06:47;1.20;99.90
68139;DHT22;54940;50.842;4.410;2023-03-01T03:09:14;1.10;99.90
68139;DHT22;54940;50.842;4.410;2023-03-01T03:11:40;1.10;99.90
68139;DHT22;54940;50.842;4.410;2023-03-01T03:14:08;1.00;99.90
68139;DHT22;54940;50.842;4.410;2023-03-01T03:16:49;1.00;99.90
68139;DHT22;54940;50.842;4.410;2023-03-01T03:19:18;1.00;99.90
68139;DHT22;54940;50.842;4.410;2023-03-01T03:21:44;1.00;99.90
68139;DHT22;54940;50.842;4.410;2023-03-01T03:24:09;1.00;99.90
68139;DHT22;54940;50.842;4.410;2023-03-01T03:26:35;1.00;99.90
68139;DHT22;54940;50.842;4.410;2023-03-01T03:29:01;1.00;99.90
68139;DHT22;54940;50.842;4.410;2023-03-01T03:31:27;1.00;99.90
68139;DHT22;54940;50.842;4.410;2023-03-01T03:33:53;1.00;99.90
68139;DHT22;54940;50.842;4.410;2023-03-01T03:36:21;1.00;99.90
68139;DHT22;54940;50.842;4.410;2023-03-01T03:38:48;1.00;99.90
68139;DHT22;54940;50.842;4.410;2023-03-01T03:41:14;0.90;99.90
68139;DHT22;54940;50.842;4.410;2023-03-01T03:43:42;0.80;99.90
68139;DHT22;54940;50.842;4.410;2023-03-01T03:46:09;0.80;99.90
68139;DHT22;54940;50.842;4.410;2023-03-01T03:48:41;0.70;99.90
68139;DHT22;54940;50.842;4.410;2023-03-01T03:51:14;0.80;99.90
68139;DHT22;54940;50.842;4.410;2023-03-01T03:53:40;0.80;99.90
68139;DHT22;54940;50.842;4.410;2023-03-01T03:56:06;0.80;99.90
68139;DHT22;54940;50.842;4.410;2023-03-01T03:58:32;0.60;99.90
68139;DHT22;54940;50.842;4.410;2023-03-01T04:00:58;0.70;99.90
68139;DHT22;54940;50.842;4.410;2023-03-01T04:03:27;0.70;99.90
68139;DHT22;54940;50.842;4.410;2023-03-01T04:05:53;0.80;99.90
68139;DHT22;54940;50.842;4.410;2023-03-01T04:08:21;0.80;99.90
68139;DHT22;54940;50.842;4.410;2023-03-01T04:10:48;0.50;99.90
68139;DHT22;54940;50.842;4.410;2023-03-01T04:13:20;0.50;99.90
68139;DHT22;54940;50.842;4.410;2023-03-01T04:15:48;0.60;99.90
68139;DHT22;54940;50.842;4.410;2023-03-01T04:18:15;0.50;99.90
68139;DHT22;54940;50.842;4.410;2023-03-01T04:20:41;0.50;99.90
68139;DHT22;54940;50.842;4.410;2023-03-01T04:23:15;0.60;99.90
68139;DHT22;54940;50.842;4.410;2023-03-01T04:28:19;0.60;99.90
68139;DHT22;54940;50.842;4.410;2023-03-01T04:30:45;0.70;99.90
68139;DHT22;54940;50.842;4.410;2023-03-01T04:33:10;0.70;99.90
68139;DHT22;54940;50.842;4.410;2023-03-01T04:35:37;0.50;99.90
68139;DHT22;54940;50.842;4.410;2023-03-01T04:38:05;0.40;99.90
68139;DHT22;54940;50.842;4.410;2023-03-01T04:40:30;0.60;99.90
68139;DHT22;54940;50.842;4.410;2023-03-01T04:42:56;0.60;99.90
68139;DHT22;54940;50.842;4.410;2023-03-01T04:45:22;0.70;99.90
68139;DHT22;54940;50.842;4.410;2023-03-01T04:47:47;0.70;99.90
68139;DHT22;54940;50.842;4.410;2023-03-01T04:50:15;0.70;99.90
68139;DHT22;54940;50.842;4.410;2023-03-01T04:52:45;0.60;99.90
68139;DHT22;54940;50.842;4.410;2023-03-01T04:55:11;0.50;99.90
68139;DHT22;54940;50.842;4.410;2023-03-01T04:57:37;0.50;99.90
68139;DHT22;54940;50.842;4.410;2023-03-01T05:00:04;0.50;99.90
68139;DHT22;54940;50.842;4.410;2023-03-01T05:02:50;0.50;99.90
68139;DHT22;54940;50.842;4.410;2023-03-01T05:05:19;0.40;99.90
68139;DHT22;54940;50.842;4.410;2023-03-01T05:07:45;0.40;99.90
68139;DHT22;54940;50.842;4.410;2023-03-01T05:10:11;0.50;99.90
68139;DHT22;54940;50.842;4.410;2023-03-01T05:12:37;0.30;99.90
68139;DHT22;54940;50.842;4.410;2023-03-01T05:15:03;0.20;99.90
68139;DHT22;54940;50.842;4.410;2023-03-01T05:17:33;0.10;99.90
68139;DHT22;54940;50.842;4.410;2023-03-01T05:19:59;-0.10;99.90
68139;DHT22;54940;50.842;4.410;2023-03-01T05:22:25;-0.10;99.90
68139;DHT22;54940;50.842;4.410;2023-03-01T05:24:51;0.00;99.90
68139;DHT22;54940;50.842;4.410;2023-03-01T05:27:16;-0.10;99.90
68139;DHT22;54940;50.842;4.410;2023-03-01T05:29:42;-0.10;99.90
68139;DHT22;54940;50.842;4.410;2023-03-01T05:32:08;-0.20;99.90
68139;DHT22;54940;50.842;4.410;2023-03-01T05:34:35;-0.10;99.90
68139;DHT22;54940;50.842;4.410;2023-03-01T05:37:02;0.00;99.90
68139;DHT22;54940;50.842;4.410;2023-03-01T05:39:28;0.10;99.90
68139;DHT22;54940;50.842;4.410;2023-03-01T05:41:56;0.10;99.90
68139;DHT22;54940;50.842;4.410;2023-03-01T05:44:22;0.20;99.90
68139;DHT22;54940;50.842;4.410;2023-03-01T05:46:48;0.10;99.90
68139;DHT22;54940;50.842;4.410;2023-03-01T05:49:15;0.10;99.90
68139;DHT22;54940;50.842;4.410;2023-03-01T05:51:41;0.10;99.90
68139;DHT22;54940;50.842;4.410;2023-03-01T05:54:11;0.00;99.90
68139;DHT22;54940;50.842;4.410;2023-03-01T05:56:37;0.10;99.90
68139;DHT22;54940;50.842;4.410;2023-03-01T05:59:03;0.00;99.90
68139;DHT22;54940;50.842;4.410;2023-03-01T06:01:31;-0.10;99.90
68139;DHT22;54940;50.842;4.410;2023-03-01T06:03:57;-0.10;99.90
68139;DHT22;54940;50.842;4.410;2023-03-01T06:06:23;-0.20;99.90
68139;DHT22;54940;50.842;4.410;2023-03-01T06:08:49;-0.30;99.90
68139;DHT22;54940;50.842;4.410;2023-03-01T06:11:15;-0.20;99.90
68139;DHT22;54940;50.842;4.410;2023-03-01T06:13:42;-0.30;99.90
68139;DHT22;54940;50.842;4.410;2023-03-01T06:16:08;-0.10;99.90
68139;DHT22;54940;50.842;4.410;2023-03-01T06:18:35;-0.10;99.90
68139;DHT22;54940;50.842;4.410;2023-03-01T06:21:00;0.10;99.90
68139;DHT22;54940;50.842;4.410;2023-03-01T06:23:26;0.00;99.90
68139;DHT22;54940;50.842;4.410;2023-03-01T06:25:52;0.10;99.90
68139;DHT22;54940;50.842;4.410;2023-03-01T06:28:18;-0.10;99.90
68139;DHT22;54940;50.842;4.410;2023-03-01T06:30:43;-0.10;99.90
68139;DHT22;54940;50.842;4.410;2023-03-01T06:33:09;-0.20;99.90
68139;DHT22;54940;50.842;4.410;2023-03-01T06:35:35;-0.20;99.90
68139;DHT22;54940;50.842;4.410;2023-03-01T06:38:02;-0.20;99.90
68139;DHT22;54940;50.842;4.410;2023-03-01T06:40:29;-0.20;99.90
68139;DHT22;54940;50.842;4.410;2023-03-01T06:42:54;-0.20;99.90
68139;DHT22;54940;50.842;4.410;2023-03-01T06:45:21;-0.30;99.90
68139;DHT22;54940;50.842;4.410;2023-03-01T06:47:47;-0.30;99.90
68139;DHT22;54940;50.842;4.410;2023-03-01T06:50:13;-0.40;99.90
68139;DHT22;54940;50.842;4.410;2023-03-01T06:52:39;-0.30;99.90
68139;DHT22;54940;50.842;4.410;2023-03-01T06:55:06;-0.20;99.90
68139;DHT22;54940;50.842;4.410;2023-03-01T06:57:32;0.00;99.90
68139;DHT22;54940;50.842;4.410;2023-03-01T06:59:58;0.00;99.90
68139;DHT22;54940;50.842;4.410;2023-03-01T07:02:23;0.00;99.90
68139;DHT22;54940;50.842;4.410;2023-03-01T07:04:50;-0.10;99.90
68139;DHT22;54940;50.842;4.410;2023-03-01T07:07:16;-0.10;99.90
68139;DHT22;54940;50.842;4.410;2023-03-01T07:09:44;0.00;99.90
68139;DHT22;54940;50.842;4.410;2023-03-01T07:12:10;0.00;99.90
68139;DHT22;54940;50.842;4.410;2023-03-01T07:14:36;0.00;99.90
68139;DHT22;54940;50.842;4.410;2023-03-01T07:17:01;0.00;99.90
68139;DHT22;54940;50.842;4.410;2023-03-01T07:19:27;-0.10;99.90
68139;DHT22;54940;50.842;4.410;2023-03-01T07:21:52;0.00;99.90
68139;DHT22;54940;50.842;4.410;2023-03-01T07:24:19;0.00;99.90
68139;DHT22;54940;50.842;4.410;2023-03-01T07:26:48;-0.20;99.90
68139;DHT22;54940;50.842;4.410;2023-03-01T07:29:14;-0.30;99.90
68139;DHT22;54940;50.842;4.410;2023-03-01T07:31:40;-0.30;99.90
68139;DHT22;54940;50.842;4.410;2023-03-01T07:34:05;-0.20;99.90
68139;DHT22;54940;50.842;4.410;2023-03-01T07:36:31;-0.30;99.90
68139;DHT22;54940;50.842;4.410;2023-03-01T07:38:57;-0.40;99.90
68139;DHT22;54940;50.842;4.410;2023-03-01T07:41:23;-0.40;99.90
68139;DHT22;54940;50.842;4.410;2023-03-01T07:43:49;-0.40;99.90
68139;DHT22;54940;50.842;4.410;2023-03-01T07:46:14;-0.40;99.90
68139;DHT22;54940;50.842;4.410;2023-03-01T07:48:40;-0.40;99.90
68139;DHT22;54940;50.842;4.410;2023-03-01T07:51:06;-0.20;99.90
68139;DHT22;54940;50.842;4.410;2023-03-01T07:53:33;-0.10;99.90
68139;DHT22;54940;50.842;4.410;2023-03-01T07:56:13;-0.10;99.90
68139;DHT22;54940;50.842;4.410;2023-03-01T07:58:42;-0.10;99.90
68139;DHT22;54940;50.842;4.410;2023-03-01T08:01:11;-0.10;99.90
68139;DHT22;54940;50.842;4.410;2023-03-01T08:03:37;0.00;99.90
68139;DHT22;54940;50.842;4.410;2023-03-01T08:06:05;0.00;99.90
68139;DHT22;54940;50.842;4.410;2023-03-01T08:08:31;0.00;99.90
68139;DHT22;54940;50.842;4.410;2023-03-01T08:10:58;-0.10;99.90
68139;DHT22;54940;50.842;4.410;2023-03-01T08:13:24;-0.10;99.90
68139;DHT22;54940;50.842;4.410;2023-03-01T08:15:51;0.00;99.90
68139;DHT22;54940;50.842;4.410;2023-03-01T08:18:17;0.10;99.90
68139;DHT22;54940;50.842;4.410;2023-03-01T08:20:43;0.20;99.90
68139;DHT22;54940;50.842;4.410;2023-03-01T08:23:09;0.30;99.90
68139;DHT22;54940;50.842;4.410;2023-03-01T08:25:35;0.30;99.90
68139;DHT22;54940;50.842;4.410;2023-03-01T08:28:00;0.30;99.90
68139;DHT22;54940;50.842;4.410;2023-03-01T08:30:26;0.40;99.90
68139;DHT22;54940;50.842;4.410;2023-03-01T08:32:52;0.40;99.90
68139;DHT22;54940;50.842;4.410;2023-03-01T08:35:19;0.40;99.90
68139;DHT22;54940;50.842;4.410;2023-03-01T08:37:45;0.30;99.90
68139;DHT22;54940;50.842;4.410;2023-03-01T08:40:11;0.50;99.90
68139;DHT22;54940;50.842;4.410;2023-03-01T08:42:40;0.50;99.90
68139;DHT22;54940;50.842;4.410;2023-03-01T08:45:06;0.60;99.90
68139;DHT22;54940;50.842;4.410;2023-03-01T08:47:33;0.70;99.90
68139;DHT22;54940;50.842;4.410;2023-03-01T08:49:59;0.70;99.90
68139;DHT22;54940;50.842;4.410;2023-03-01T08:52:25;0.80;99.90
68139;DHT22;54940;50.842;4.410;2023-03-01T08:54:51;0.80;99.90
68139;DHT22;54940;50.842;4.410;2023-03-01T08:57:17;0.80;99.90
68139;DHT22;54940;50.842;4.410;2023-03-01T08:59:42;0.90;99.90
68139;DHT22;54940;50.842;4.410;2023-03-01T09:02:18;0.80;99.90
68139;DHT22;54940;50.842;4.410;2023-03-01T09:04:44;0.80;99.90
68139;DHT22;54940;50.842;4.410;2023-03-01T09:07:10;0.90;99.90
68139;DHT22;54940;50.842;4.410;2023-03-01T09:09:37;0.90;99.90
68139;DHT22;54940;50.842;4.410;2023-03-01T09:12:03;0.80;99.90
68139;DHT22;54940;50.842;4.410;2023-03-01T09:14:29;0.80;99.90
68139;DHT22;54940;50.842;4.410;2023-03-01T09:16:54;0.90;99.90
68139;DHT22;54940;50.842;4.410;2023-03-01T09:19:20;0.90;99.90
68139;DHT22;54940;50.842;4.410;2023-03-01T09:21:46;0.80;99.90
68139;DHT22;54940;50.842;4.410;2023-03-01T09:24:22;0.90;99.90
68139;DHT22;54940;50.842;4.410;2023-03-01T09:26:48;1.00;99.90
68139;DHT22;54940;50.842;4.410;2023-03-01T09:29:15;1.00;99.90
68139;DHT22;54940;50.842;4.410;2023-03-01T09:31:42;1.10;99.90
68139;DHT22;54940;50.842;4.410;2023-03-01T09:34:08;1.20;99.90
68139;DHT22;54940;50.842;4.410;2023-03-01T09:36:34;1.30;99.90
68139;DHT22;54940;50.842;4.410;2023-03-01T09:39:01;1.30;99.90
68139;DHT22;54940;50.842;4.410;2023-03-01T09:44:13;1.40;99.90
68139;DHT22;54940;50.842;4.410;2023-03-01T09:46:43;1.40;99.90
68139;DHT22;54940;50.842;4.410;2023-03-01T09:49:18;1.40;99.90
68139;DHT22;54940;50.842;4.410;2023-03-01T09:54:25;1.40;99.90
68139;DHT22;54940;50.842;4.410;2023-03-01T09:57:17;1.60;99.90
68139;DHT22;54940;50.842;4.410;2023-03-01T10:03:16;1.80;99.90
68139;DHT22;54940;50.842;4.410;2023-03-01T10:11:31;1.90;99.90
68139;DHT22;54940;50.842;4.410;2023-03-01T10:16:54;2.00;99.90
68139;DHT22;54940;50.842;4.410;2023-03-01T10:19:39;2.00;99.90
68139;DHT22;54940;50.842;4.410;2023-03-01T10:22:24;2.10;99.90
68139;DHT22;54940;50.842;4.410;2023-03-01T10:24:54;2.10;99.90
68139;DHT22;54940;50.842;4.410;2023-03-01T10:32:47;2.30;99.90
68139;DHT22;54940;50.842;4.410;2023-03-01T10:35:27;2.40;99.90
68139;DHT22;54940;50.842;4.410;2023-03-01T10:38:13;2.60;99.90
68139;DHT22;54940;50.842;4.410;2023-03-01T10:40:54;2.60;99.90
68139;DHT22;54940;50.842;4.410;2023-03-01T10:43:23;2.70;99.90
68139;DHT22;54940;50.842;4.410;2023-03-01T10:45:49;2.90;99.90
68139;DHT22;54940;50.842;4.410;2023-03-01T10:50:46;3.00;99.90
68139;DHT22;54940;50.842;4.410;2023-03-01T10:56:17;3.40;99.90
68139;DHT22;54940;50.842;4.410;2023-03-01T11:01:28;3.20;99.90
68139;DHT22;54940;50.842;4.410;2023-03-01T11:06:39;3.10;99.90
68139;DHT22;54940;50.842;4.410;2023-03-01T11:09:35;3.30;99.90
68139;DHT22;54940;50.842;4.410;2023-03-01T11:12:11;3.40;99.90
68139;DHT22;54940;50.842;4.410;2023-03-01T11:14:39;3.40;99.90
68139;DHT22;54940;50.842;4.410;2023-03-01T11:19:43;3.90;99.90
68139;DHT22;54940;50.842;4.410;2023-03-01T11:22:24;4.10;99.90
68139;DHT22;54940;50.842;4.410;2023-03-01T11:24:52;4.30;99.90
68139;DHT22;54940;50.842;4.410;2023-03-01T11:27:26;4.50;99.90
68139;DHT22;54940;50.842;4.410;2023-03-01T11:30:12;4.60;99.90
68139;DHT22;54940;50.842;4.410;2023-03-01T11:33:01;4.90;99.90
68139;DHT22;54940;50.842;4.410;2023-03-01T11:35:28;5.20;99.90
68139;DHT22;54940;50.842;4.410;2023-03-01T11:41:07;5.50;99.90
68139;DHT22;54940;50.842;4.410;2023-03-01T11:48:58;6.00;99.90
68139;DHT22;54940;50.842;4.410;2023-03-01T12:03:02;6.60;99.90
68139;DHT22;54940;50.842;4.410;2023-03-01T12:08:17;6.70;99.90
68139;DHT22;54940;50.842;4.410;2023-03-01T12:22:35;7.60;99.90
68139;DHT22;54940;50.842;4.410;2023-03-01T12:25:13;7.90;99.90
68139;DHT22;54940;50.842;4.410;2023-03-01T12:27:53;7.80;99.90
68139;DHT22;54940;50.842;4.410;2023-03-01T12:42:19;7.80;99.90
68139;DHT22;54940;50.842;4.410;2023-03-01T12:50:04;7.40;99.90
68139;DHT22;54940;50.842;4.410;2023-03-01T12:52:55;7.50;99.90
68139;DHT22;54940;50.842;4.410;2023-03-01T13:01:15;7.00;99.90
68139;DHT22;54940;50.842;4.410;2023-03-01T13:04:08;7.10;99.90
68139;DHT22;54940;50.842;4.410;2023-03-01T13:09:27;7.20;99.90
68139;DHT22;54940;50.842;4.410;2023-03-01T13:11:56;7.10;99.90
68139;DHT22;54940;50.842;4.410;2023-03-01T13:16:50;6.70;99.90
68139;DHT22;54940;50.842;4.410;2023-03-01T13:19:26;6.50;99.90
68139;DHT22;54940;50.842;4.410;2023-03-01T13:21:55;6.50;99.90
68139;DHT22;54940;50.842;4.410;2023-03-01T13:24:27;6.40;99.90
68139;DHT22;54940;50.842;4.410;2023-03-01T13:29:53;6.30;99.90
68139;DHT22;54940;50.842;4.410;2023-03-01T13:32:27;6.40;99.90
68139;DHT22;54940;50.842;4.410;2023-03-01T13:37:35;6.10;99.90
68139;DHT22;54940;50.842;4.410;2023-03-01T13:40:05;6.20;99.90
68139;DHT22;54940;50.842;4.410;2023-03-01T13:42:54;6.20;99.90
68139;DHT22;54940;50.842;4.410;2023-03-01T13:48:27;6.00;99.90
68139;DHT22;54940;50.842;4.410;2023-03-01T13:51:25;6.20;99.90
68139;DHT22;54940;50.842;4.410;2023-03-01T13:53:52;6.10;99.90
68139;DHT22;54940;50.842;4.410;2023-03-01T13:56:27;6.00;99.90
68139;DHT22;54940;50.842;4.410;2023-03-01T13:59:23;5.90;99.90
68139;DHT22;54940;50.842;4.410;2023-03-01T14:01:56;5.90;99.90
68139;DHT22;54940;50.842;4.410;2023-03-01T14:04:24;5.80;99.90
68139;DHT22;54940;50.842;4.410;2023-03-01T14:06:51;5.90;99.90
68139;DHT22;54940;50.842;4.410;2023-03-01T14:09:23;6.00;99.90
68139;DHT22;54940;50.842;4.410;2023-03-01T14:12:13;5.80;99.90
68139;DHT22;54940;50.842;4.410;2023-03-01T14:15:13;5.90;99.90
68139;DHT22;54940;50.842;4.410;2023-03-01T14:18:04;5.90;99.90
68139;DHT22;54940;50.842;4.410;2023-03-01T14:20:37;5.90;99.90
68139;DHT22;54940;50.842;4.410;2023-03-01T14:23:12;5.80;99.90
68139;DHT22;54940;50.842;4.410;2023-03-01T14:25:45;5.90;99.90
68139;DHT22;54940;50.842;4.410;2023-03-01T14:28:20;5.90;99.90
68139;DHT22;54940;50.842;4.410;2023-03-01T14:30:57;6.00;99.90
68139;DHT22;54940;50.842;4.410;2023-03-01T14:33:30;6.00;99.90
68139;DHT22;54940;50.842;4.410;2023-03-01T14:41:05;5.90;99.90
68139;DHT22;54940;50.842;4.410;2023-03-01T14:43:31;5.90;99.90
68139;DHT22;54940;50.842;4.410;2023-03-01T14:45:57;5.90;99.90
68139;DHT22;54940;50.842;4.410;2023-03-01T14:48:23;5.80;99.90
68139;DHT22;54940;50.842;4.410;2023-03-01T14:50:50;5.70;99.90
68139;DHT22;54940;50.842;4.410;2023-03-01T14:53:24;5.80;99.90
68139;DHT22;54940;50.842;4.410;2023-03-01T14:55:53;5.80;99.90
68139;DHT22;54940;50.842;4.410;2023-03-01T14:58:24;5.90;99.90
68139;DHT22;54940;50.842;4.410;2023-03-01T15:00:59;5.90;99.90
68139;DHT22;54940;50.842;4.410;2023-03-01T15:03:37;6.10;99.90
68139;DHT22;54940;50.842;4.410;2023-03-01T15:06:05;6.10;99.90
68139;DHT22;54940;50.842;4.410;2023-03-01T15:08:31;6.10;99.90
68139;DHT22;54940;50.842;4.410;2023-03-01T15:13:50;6.00;99.90
68139;DHT22;54940;50.842;4.410;2023-03-01T15:16:22;6.00;99.90
68139;DHT22;54940;50.842;4.410;2023-03-01T15:18:53;6.00;99.90
68139;DHT22;54940;50.842;4.410;2023-03-01T15:21:55;6.00;99.90
68139;DHT22;54940;50.842;4.410;2023-03-01T15:26:56;6.10;99.90
68139;DHT22;54940;50.842;4.410;2023-03-01T15:29:29;6.10;99.90
68139;DHT22;54940;50.842;4.410;2023-03-01T15:32:22;6.00;99.90
68139;DHT22;54940;50.842;4.410;2023-03-01T15:34:49;6.10;99.90
68139;DHT22;54940;50.842;4.410;2023-03-01T15:40:03;5.90;99.90
68139;DHT22;54940;50.842;4.410;2023-03-01T15:45:31;5.90;99.90
68139;DHT22;54940;50.842;4.410;2023-03-01T15:48:04;6.00;99.90
68139;DHT22;54940;50.842;4.410;2023-03-01T15:50:33;5.90;99.90
68139;DHT22;54940;50.842;4.410;2023-03-01T15:53:00;5.90;99.90
68139;DHT22;54940;50.842;4.410;2023-03-01T15:55:29;6.00;99.90
68139;DHT22;54940;50.842;4.410;2023-03-01T15:58:08;6.00;99.90
68139;DHT22;54940;50.842;4.410;2023-03-01T16:00:35;5.80;99.90
68139;DHT22;54940;50.842;4.410;2023-03-01T16:03:00;5.80;99.90
68139;DHT22;54940;50.842;4.410;2023-03-01T16:05:28;5.70;99.90
68139;DHT22;54940;50.842;4.410;2023-03-01T16:07:56;5.70;99.90
68139;DHT22;54940;50.842;4.410;2023-03-01T16:10:22;5.70;99.90
68139;DHT22;54940;50.842;4.410;2023-03-01T16:12:50;5.70;99.90
68139;DHT22;54940;50.842;4.410;2023-03-01T16:15:23;5.70;99.90
68139;DHT22;54940;50.842;4.410;2023-03-01T16:17:50;5.70;99.90
68139;DHT22;54940;50.842;4.410;2023-03-01T16:20:16;5.70;99.90
68139;DHT22;54940;50.842;4.410;2023-03-01T16:22:43;5.70;99.90
68139;DHT22;54940;50.842;4.410;2023-03-01T16:25:13;5.70;99.90
68139;DHT22;54940;50.842;4.410;2023-03-01T16:27:43;5.60;99.90
68139;DHT22;54940;50.842;4.410;2023-03-01T16:30:09;5.70;99.90
68139;DHT22;54940;50.842;4.410;2023-03-01T16:32:43;5.70;99.90
68139;DHT22;54940;50.842;4.410;2023-03-01T16:35:10;5.70;99.90
68139;DHT22;54940;50.842;4.410;2023-03-01T16:37:37;5.70;99.90
68139;DHT22;54940;50.842;4.410;2023-03-01T16:40:04;5.70;99.90
68139;DHT22;54940;50.842;4.410;2023-03-01T16:42:34;5.90;99.90
68139;DHT22;54940;50.842;4.410;2023-03-01T16:45:00;5.70;99.90
68139;DHT22;54940;50.842;4.410;2023-03-01T16:47:27;5.70;99.90
68139;DHT22;54940;50.842;4.410;2023-03-01T16:49:53;5.60;99.90
68139;DHT22;54940;50.842;4.410;2023-03-01T16:52:20;5.70;99.90
68139;DHT22;54940;50.842;4.410;2023-03-01T16:54:46;5.70;99.90
68139;DHT22;54940;50.842;4.410;2023-03-01T16:57:11;5.50;99.90
68139;DHT22;54940;50.842;4.410;2023-03-01T16:59:37;5.50;99.90
68139;DHT22;54940;50.842;4.410;2023-03-01T17:02:04;5.50;99.90
68139;DHT22;54940;50.842;4.410;2023-03-01T17:04:31;5.60;99.90
68139;DHT22;54940;50.842;4.410;2023-03-01T17:06:57;5.50;99.90
68139;DHT22;54940;50.842;4.410;2023-03-01T17:09:22;5.50;99.90
68139;DHT22;54940;50.842;4.410;2023-03-01T17:11:48;5.40;99.90
68139;DHT22;54940;50.842;4.410;2023-03-01T17:14:15;5.30;99.90
68139;DHT22;54940;50.842;4.410;2023-03-01T17:16:41;5.30;99.90
68139;DHT22;54940;50.842;4.410;2023-03-01T17:19:07;5.30;99.90
68139;DHT22;54940;50.842;4.410;2023-03-01T17:21:33;5.30;99.90
68139;DHT22;54940;50.842;4.410;2023-03-01T17:23:59;5.30;99.90
68139;DHT22;54940;50.842;4.410;2023-03-01T17:26:25;5.40;99.90
68139;DHT22;54940;50.842;4.410;2023-03-01T17:28:51;5.40;99.90
68139;DHT22;54940;50.842;4.410;2023-03-01T17:31:18;5.30;99.90
68139;DHT22;54940;50.842;4.410;2023-03-01T17:33:44;5.30;99.90
68139;DHT22;54940;50.842;4.410;2023-03-01T17:36:10;5.10;99.90
68139;DHT22;54940;50.842;4.410;2023-03-01T17:38:36;5.20;99.90
68139;DHT22;54940;50.842;4.410;2023-03-01T17:41:02;5.10;99.90
68139;DHT22;54940;50.842;4.410;2023-03-01T17:43:29;5.00;99.90
68139;DHT22;54940;50.842;4.410;2023-03-01T17:45:55;4.90;99.90
68139;DHT22;54940;50.842;4.410;2023-03-01T17:48:21;4.90;99.90
68139;DHT22;54940;50.842;4.410;2023-03-01T17:50:47;5.00;99.90
68139;DHT22;54940;50.842;4.410;2023-03-01T17:53:13;5.00;99.90
68139;DHT22;54940;50.842;4.410;2023-03-01T17:55:40;4.90;99.90
68139;DHT22;54940;50.842;4.410;2023-03-01T17:58:07;4.90;99.90
68139;DHT22;54940;50.842;4.410;2023-03-01T18:00:34;4.90;99.90
68139;DHT22;54940;50.842;4.410;2023-03-01T18:03:00;4.90;99.90
68139;DHT22;54940;50.842;4.410;2023-03-01T18:05:26;4.90;99.90
68139;DHT22;54940;50.842;4.410;2023-03-01T18:07:52;4.80;99.90
68139;DHT22;54940;50.842;4.410;2023-03-01T18:10:19;4.70;99.90
68139;DHT22;54940;50.842;4.410;2023-03-01T18:12:45;4.70;99.90